createdAt,value
2019-04-25T00:00:47.484Z,16.38
2019-04-25T00:04:17.902Z,16.38
2019-04-25T00:06:52.037Z,16.17
2019-04-25T00:09:25.878Z,15.95
2019-04-25T00:11:55.219Z,16.05
2019-04-25T00:14:27.254Z,16.11
2019-04-25T00:16:56.777Z,16.17
2019-04-25T00:19:26.030Z,16.21
2019-04-25T00:21:57.053Z,16.27
2019-04-25T00:24:28.085Z,16.30
2019-04-25T00:26:57.260Z,16.31
2019-04-25T00:29:26.576Z,16.33
2019-04-25T00:31:56.646Z,16.34
2019-04-25T00:34:26.995Z,16.35
2019-04-25T00:36:56.320Z,16.35
2019-04-25T00:39:25.917Z,16.39
2019-04-25T00:41:55.317Z,16.45
2019-04-25T00:44:25.994Z,16.47
2019-04-25T00:46:56.819Z,16.48
2019-04-25T00:49:26.245Z,16.48
2019-04-25T00:51:55.564Z,16.48
2019-04-25T00:54:33.819Z,16.48
2019-04-25T00:58:06.896Z,16.48
2019-04-25T01:00:41.562Z,16.45
2019-04-25T01:03:12.715Z,16.19
2019-04-25T01:05:42.490Z,16.23
2019-04-25T01:08:13.094Z,16.29
2019-04-25T01:10:42.310Z,16.29
2019-04-25T01:13:11.693Z,16.31
2019-04-25T01:15:42.454Z,16.32
2019-04-25T01:18:12.331Z,16.34
2019-04-25T01:20:43.342Z,16.35
2019-04-25T01:23:13.757Z,16.38
2019-04-25T01:25:44.721Z,16.41
2019-04-25T01:28:14.371Z,16.43
2019-04-25T01:30:43.926Z,16.44
2019-04-25T01:33:13.583Z,16.42
2019-04-25T01:35:47.435Z,16.42
2019-04-25T01:38:21.316Z,16.44
2019-04-25T01:40:54.445Z,16.43
2019-04-25T01:43:29.264Z,16.44
2019-04-25T01:46:00.167Z,16.42
2019-04-25T01:48:30.345Z,16.38
2019-04-25T01:50:59.618Z,16.37
2019-04-25T01:53:28.845Z,16.36
2019-04-25T01:56:04.040Z,16.29
2019-04-25T01:58:31.299Z,16.28
2019-04-25T02:01:00.564Z,16.23
2019-04-25T02:03:30.004Z,16.19
2019-04-25T02:05:59.401Z,16.13
2019-04-25T02:08:28.630Z,16.07
2019-04-25T02:11:43.968Z,16.04
2019-04-25T02:14:13.753Z,16.00
2019-04-25T02:16:43.951Z,15.77
2019-04-25T02:19:14.540Z,15.74
2019-04-25T02:21:45.375Z,15.76
2019-04-25T02:24:14.602Z,15.75
2019-04-25T02:26:43.909Z,15.76
2019-04-25T02:29:13.632Z,15.79
2019-04-25T02:31:45.062Z,15.82
2019-04-25T02:34:17.782Z,15.80
2019-04-25T02:36:46.981Z,15.79
2019-04-25T02:39:17.767Z,15.79
2019-04-25T02:41:47.018Z,15.81
2019-04-25T02:44:16.153Z,15.87
2019-04-25T02:47:06.472Z,15.90
2019-04-25T02:49:41.984Z,15.94
2019-04-25T02:52:18.793Z,15.87
2019-04-25T02:54:49.892Z,15.87
2019-04-25T02:57:19.282Z,15.86
2019-04-25T02:59:50.504Z,15.89
2019-04-25T03:02:20.030Z,15.89
2019-04-25T03:04:49.235Z,15.91
2019-04-25T03:07:18.620Z,15.92
2019-04-25T03:09:47.878Z,15.90
2019-04-25T03:12:29.839Z,15.87
2019-04-25T03:14:48.098Z,15.83
2019-04-25T03:17:17.548Z,15.81
2019-04-25T03:19:54.220Z,15.81
2019-04-25T03:22:26.703Z,15.82
2019-04-25T03:24:59.685Z,15.82
2019-04-25T03:27:28.862Z,15.86
2019-04-25T03:29:58.969Z,15.88
2019-04-25T03:32:29.839Z,15.96
2019-04-25T03:34:59.083Z,16.01
2019-04-25T03:37:28.373Z,16.05
2019-04-25T03:39:57.724Z,16.07
2019-04-25T03:42:28.504Z,16.10
2019-04-25T03:44:58.636Z,16.10
2019-04-25T03:47:27.866Z,16.12
2019-04-25T03:49:57.349Z,16.15
2019-04-25T03:52:26.654Z,16.22
2019-04-25T03:54:56.854Z,16.27
2019-04-25T03:57:26.302Z,16.31
2019-04-25T03:59:55.550Z,16.33
2019-04-25T04:02:25.264Z,16.37
2019-04-25T04:04:54.766Z,16.41
2019-04-25T04:07:24.493Z,16.44
2019-04-25T04:09:55.101Z,16.47
2019-04-25T04:12:25.129Z,16.50
2019-04-25T04:14:56.291Z,16.54
2019-04-25T04:17:27.627Z,16.56
2019-04-25T04:20:03.820Z,16.60
2019-04-25T04:22:53.304Z,16.62
2019-04-25T04:25:23.822Z,16.61
2019-04-25T04:27:53.846Z,16.57
2019-04-25T04:30:24.138Z,16.56
2019-04-25T04:32:55.047Z,16.58
2019-04-25T04:35:25.470Z,16.59
2019-04-25T04:37:55.543Z,16.61
2019-04-25T04:40:25.400Z,16.66
2019-04-25T04:42:55.422Z,16.71
2019-04-25T04:45:25.367Z,16.74
2019-04-25T04:47:55.233Z,16.73
2019-04-25T04:50:25.390Z,16.72
2019-04-25T04:52:56.459Z,16.70
2019-04-25T04:55:26.316Z,16.73
2019-04-25T04:57:56.236Z,16.79
2019-04-25T05:00:27.473Z,16.88
2019-04-25T05:02:59.037Z,16.98
2019-04-25T05:05:30.748Z,17.06
2019-04-25T05:08:03.787Z,17.18
2019-04-25T05:10:34.234Z,17.25
2019-04-25T05:13:04.366Z,17.32
2019-04-25T05:15:34.568Z,17.41
2019-04-25T05:18:04.251Z,17.50
2019-04-25T05:20:35.635Z,17.60
2019-04-25T05:23:05.640Z,17.68
2019-04-25T05:25:35.737Z,17.71
2019-04-25T05:28:06.058Z,17.77
2019-04-25T05:30:37.420Z,17.85
2019-04-25T05:33:07.402Z,17.92
2019-04-25T05:35:38.678Z,17.95
2019-04-25T05:38:09.235Z,17.97
2019-04-25T05:40:50.565Z,18.00
2019-04-25T05:43:21.053Z,18.00
2019-04-25T05:45:51.049Z,18.01
2019-04-25T05:48:21.156Z,18.08
2019-04-25T05:50:51.635Z,18.18
2019-04-25T05:53:22.410Z,18.30
2019-04-25T05:55:54.077Z,18.35
2019-04-25T05:58:25.707Z,18.44
2019-04-25T06:00:59.217Z,18.51
2019-04-25T06:03:29.295Z,18.58
2019-04-25T06:05:59.295Z,18.70
2019-04-25T06:08:31.012Z,18.79
2019-04-25T06:11:05.760Z,18.83
2019-04-25T06:13:39.011Z,18.93
2019-04-25T06:16:10.911Z,19.00
2019-04-25T06:18:43.878Z,19.09
2019-04-25T06:21:14.926Z,19.12
2019-04-25T06:24:04.351Z,19.17
2019-04-25T06:26:39.718Z,19.19
2019-04-25T06:29:07.959Z,19.15
2019-04-25T06:31:37.796Z,19.21
2019-04-25T06:34:09.004Z,19.30
2019-04-25T06:36:39.229Z,19.39
2019-04-25T06:39:09.796Z,19.44
2019-04-25T06:41:41.245Z,19.53
2019-04-25T06:44:13.670Z,19.54
2019-04-25T06:46:50.398Z,19.56
2019-04-25T06:49:25.509Z,19.58
2019-04-25T06:51:57.617Z,19.61
2019-04-25T06:54:29.542Z,19.62
2019-04-25T06:56:59.679Z,19.63
2019-04-25T06:59:34.419Z,19.67
2019-04-25T07:02:05.439Z,19.72
2019-04-25T07:04:35.809Z,19.76
2019-04-25T07:07:12.091Z,19.77
2019-04-25T07:09:37.929Z,19.83
2019-04-25T07:12:07.863Z,19.87
2019-04-25T07:14:37.969Z,19.95
2019-04-25T07:17:08.202Z,19.91
2019-04-25T07:19:38.582Z,19.91
2019-04-25T07:22:09.589Z,19.96
2019-04-25T07:24:39.870Z,19.99
2019-04-25T07:27:30.489Z,20.04
2019-04-25T07:30:26.706Z,20.08
2019-04-25T07:32:47.768Z,20.07
2019-04-25T07:35:17.820Z,20.09
2019-04-25T07:37:48.085Z,20.15
2019-04-25T07:40:17.961Z,20.12
2019-04-25T07:42:47.736Z,20.14
2019-04-25T07:45:19.944Z,20.16
2019-04-25T07:47:49.753Z,20.18
2019-04-25T07:50:20.003Z,20.21
2019-04-25T07:52:50.388Z,20.28
2019-04-25T07:55:23.671Z,20.32
2019-04-25T07:57:54.321Z,20.33
2019-04-25T08:00:27.272Z,20.33
2019-04-25T08:02:59.774Z,20.37
2019-04-25T08:05:30.238Z,20.41
2019-04-25T08:08:00.885Z,20.47
2019-04-25T08:10:34.713Z,20.52
2019-04-25T08:13:05.176Z,20.59
2019-04-25T08:15:46.085Z,20.73
2019-04-25T08:18:16.280Z,20.89
2019-04-25T08:20:47.472Z,21.06
2019-04-25T08:23:20.267Z,21.30
2019-04-25T08:25:50.820Z,21.51
2019-04-25T08:28:21.538Z,21.65
2019-04-25T08:30:54.836Z,21.79
2019-04-25T08:33:24.310Z,21.81
2019-04-25T08:36:04.538Z,21.80
2019-04-25T08:38:26.880Z,21.78
2019-04-25T08:40:56.949Z,21.72
2019-04-25T08:43:27.523Z,21.69
2019-04-25T08:45:57.747Z,21.68
2019-04-25T08:48:29.015Z,21.68
2019-04-25T08:51:03.747Z,21.62
2019-04-25T08:53:36.581Z,21.55
2019-04-25T08:56:14.980Z,21.50
2019-04-25T08:59:03.878Z,21.49
2019-04-25T09:01:29.480Z,21.45
2019-04-25T09:04:03.605Z,21.43
2019-04-25T09:06:35.060Z,21.45
2019-04-25T09:09:07.215Z,21.44
2019-04-25T09:11:38.894Z,21.50
2019-04-25T09:14:10.212Z,21.57
2019-04-25T09:16:41.768Z,21.65
2019-04-25T09:19:14.251Z,21.71
2019-04-25T09:21:49.347Z,21.83
2019-04-25T09:24:19.643Z,21.90
2019-04-25T09:26:49.668Z,21.99
2019-04-25T09:29:20.917Z,22.11
2019-04-25T09:31:51.556Z,22.30
2019-04-25T09:34:23.693Z,22.52
2019-04-25T09:36:54.370Z,22.78
2019-04-25T09:39:35.699Z,23.09
2019-04-25T09:42:09.242Z,23.27
2019-04-25T09:44:46.998Z,23.32
2019-04-25T09:47:17.129Z,23.39
2019-04-25T09:49:48.937Z,23.46
2019-04-25T09:52:21.030Z,23.58
2019-04-25T09:54:55.340Z,23.71
2019-04-25T09:57:33.287Z,23.86
2019-04-25T10:00:08.908Z,23.94
2019-04-25T10:02:40.226Z,23.92
2019-04-25T10:05:10.783Z,23.90
2019-04-25T10:07:43.240Z,23.87
2019-04-25T10:10:13.543Z,23.82
2019-04-25T10:12:44.327Z,23.80
2019-04-25T10:15:37.539Z,23.79
2019-04-25T10:18:10.311Z,23.72
2019-04-25T10:20:41.179Z,23.65
2019-04-25T10:23:13.629Z,23.68
2019-04-25T10:25:45.020Z,23.64
2019-04-25T10:28:15.554Z,23.57
2019-04-25T10:30:45.770Z,23.60
2019-04-25T10:33:16.477Z,23.62
2019-04-25T10:35:53.129Z,23.65
2019-04-25T10:38:18.481Z,23.69
2019-04-25T10:40:50.267Z,23.69
2019-04-25T10:43:21.822Z,23.68
2019-04-25T10:45:53.396Z,23.72
2019-04-25T10:48:24.204Z,23.76
2019-04-25T10:50:55.655Z,23.78
2019-04-25T10:53:26.442Z,23.81
2019-04-25T10:55:58.787Z,23.85
2019-04-25T10:58:29.856Z,23.92
2019-04-25T11:01:00.602Z,23.97
2019-04-25T11:03:45.462Z,24.00
2019-04-25T11:06:18.113Z,24.01
2019-04-25T11:08:49.133Z,23.95
2019-04-25T11:11:21.641Z,23.90
2019-04-25T11:13:52.506Z,23.83
2019-04-25T11:16:24.260Z,23.85
2019-04-25T11:18:55.144Z,23.80
2019-04-25T11:21:27.610Z,23.75
2019-04-25T11:23:56.525Z,23.76
2019-04-25T11:26:27.087Z,23.80
2019-04-25T11:28:58.581Z,23.84
2019-04-25T11:31:30.629Z,23.90
2019-04-25T11:34:01.349Z,23.95
2019-04-25T11:36:31.932Z,24.02
2019-04-25T11:39:07.855Z,24.08
2019-04-25T11:41:38.426Z,24.20
2019-04-25T11:44:08.918Z,24.35
2019-04-25T11:46:39.485Z,24.45
2019-04-25T11:49:10.181Z,24.60
2019-04-25T11:51:40.283Z,24.66
2019-04-25T11:54:11.551Z,24.71
2019-04-25T11:56:43.247Z,24.66
2019-04-25T11:59:13.738Z,24.51
2019-04-25T12:01:47.771Z,24.44
2019-04-25T12:04:17.901Z,24.38
2019-04-25T12:06:48.364Z,24.23
2019-04-25T12:09:19.524Z,24.14
2019-04-25T12:11:50.257Z,24.05
2019-04-25T12:14:20.645Z,23.94
2019-04-25T12:16:53.210Z,23.86
2019-04-25T12:19:34.482Z,23.78
2019-04-25T12:21:58.187Z,23.72
2019-04-25T12:24:28.464Z,23.68
2019-04-25T12:26:58.806Z,23.61
2019-04-25T12:29:29.319Z,23.60
2019-04-25T12:32:00.074Z,23.63
2019-04-25T12:34:30.599Z,23.67
2019-04-25T12:37:01.066Z,23.76
2019-04-25T12:39:31.923Z,23.89
2019-04-25T12:42:02.002Z,24.09
2019-04-25T12:44:49.698Z,24.32
2019-04-25T12:47:21.867Z,24.44
2019-04-25T12:49:51.554Z,24.46
2019-04-25T12:52:24.405Z,24.53
2019-04-25T12:54:57.223Z,24.50
2019-04-25T12:57:27.757Z,24.45
2019-04-25T12:59:58.140Z,24.40
2019-04-25T13:02:28.966Z,24.33
2019-04-25T13:04:59.782Z,24.28
2019-04-25T13:07:30.190Z,24.28
2019-04-25T13:10:00.645Z,24.30
2019-04-25T13:12:31.248Z,24.26
2019-04-25T13:15:01.839Z,24.21
2019-04-25T13:17:33.721Z,24.19
2019-04-25T13:20:07.559Z,24.25
2019-04-25T13:22:38.401Z,24.30
2019-04-25T13:25:09.181Z,24.41
2019-04-25T13:27:39.123Z,24.55
2019-04-25T13:30:11.583Z,24.66
2019-04-25T13:32:59.910Z,24.70
2019-04-25T13:35:47.326Z,24.88
2019-04-25T13:38:18.031Z,25.12
2019-04-25T13:40:48.091Z,24.86
2019-04-25T13:43:18.581Z,24.87
2019-04-25T13:45:48.913Z,24.88
2019-04-25T13:48:19.474Z,24.93
2019-04-25T13:50:51.317Z,24.94
2019-04-25T13:53:23.281Z,24.82
2019-04-25T13:55:54.221Z,24.47
2019-04-25T13:58:25.508Z,24.20
2019-04-25T14:00:56.083Z,24.01
2019-04-25T14:03:30.050Z,23.72
2019-04-25T14:06:00.001Z,23.40
2019-04-25T14:08:29.989Z,23.20
2019-04-25T14:11:01.295Z,22.83
2019-04-25T14:13:31.323Z,22.65
2019-04-25T14:16:03.983Z,22.43
2019-04-25T14:18:41.337Z,22.04
2019-04-25T14:21:16.353Z,21.81
2019-04-25T14:23:46.513Z,21.66
2019-04-25T14:26:17.287Z,21.53
2019-04-25T14:28:47.375Z,21.45
2019-04-25T14:31:35.352Z,21.36
2019-04-25T14:33:51.782Z,21.13
2019-04-25T14:36:24.696Z,20.86
2019-04-25T14:38:54.442Z,20.66
2019-04-25T14:41:24.465Z,20.65
2019-04-25T14:43:54.244Z,20.66
2019-04-25T14:46:26.530Z,20.60
2019-04-25T14:48:57.463Z,20.38
2019-04-25T14:51:28.138Z,20.32
2019-04-25T14:53:59.312Z,20.28
2019-04-25T14:56:36.515Z,20.17
2019-04-25T14:59:07.205Z,20.13
2019-04-25T15:01:44.529Z,20.10
2019-04-25T15:04:08.649Z,20.18
2019-04-25T15:06:38.232Z,20.18
2019-04-25T15:09:08.221Z,20.22
2019-04-25T15:11:38.098Z,20.18
2019-04-25T15:14:07.939Z,19.98
2019-04-25T15:16:37.756Z,19.95
2019-04-25T15:19:08.245Z,20.00
2019-04-25T15:21:37.969Z,19.95
2019-04-25T15:24:07.807Z,20.00
2019-04-25T15:26:40.257Z,20.00
2019-04-25T15:29:09.450Z,20.05
2019-04-25T15:31:39.482Z,20.14
2019-04-25T15:34:09.749Z,20.20
2019-04-25T15:36:41.433Z,20.26
2019-04-25T15:39:12.810Z,20.27
2019-04-25T15:41:47.319Z,20.30
2019-04-25T15:44:39.251Z,20.28
2019-04-25T15:47:10.729Z,20.13
2019-04-25T15:49:40.782Z,20.09
2019-04-25T15:52:12.962Z,20.13
2019-04-25T15:54:42.879Z,20.15
2019-04-25T15:57:12.755Z,20.18
2019-04-25T15:59:42.577Z,20.22
2019-04-25T16:02:13.929Z,20.22
2019-04-25T16:04:43.948Z,20.25
2019-04-25T16:07:14.302Z,20.30
2019-04-25T16:09:44.126Z,20.34
2019-04-25T16:12:15.384Z,20.35
2019-04-25T16:14:45.022Z,20.40
2019-04-25T16:17:14.707Z,20.47
2019-04-25T16:19:45.176Z,20.52
2019-04-25T16:22:14.908Z,20.53
2019-04-25T16:24:44.763Z,20.56
2019-04-25T16:27:14.592Z,20.56
2019-04-25T16:29:44.426Z,20.61
2019-04-25T16:32:20.604Z,20.69
2019-04-25T16:34:48.592Z,20.71
2019-04-25T16:37:18.618Z,20.64
2019-04-25T16:39:48.238Z,20.54
2019-04-25T16:42:17.922Z,20.44
2019-04-25T16:44:48.808Z,20.39
2019-04-25T16:47:20.224Z,20.34
2019-04-25T16:49:50.055Z,20.31
2019-04-25T16:52:21.547Z,20.23
2019-04-25T16:54:52.172Z,20.20
2019-04-25T16:57:22.314Z,20.22
2019-04-25T16:59:52.087Z,20.20
2019-04-25T17:02:32.396Z,20.20
2019-04-25T17:04:54.968Z,20.05
2019-04-25T17:07:24.977Z,19.92
2019-04-25T17:09:54.549Z,19.85
2019-04-25T17:12:24.347Z,19.84
2019-04-25T17:14:55.939Z,19.82
2019-04-25T17:17:27.219Z,19.77
2019-04-25T17:20:13.141Z,19.81
2019-04-25T17:22:43.988Z,19.73
2019-04-25T17:25:14.027Z,19.69
2019-04-25T17:27:43.840Z,19.66
2019-04-25T17:30:14.395Z,19.61
2019-04-25T17:32:53.865Z,19.62
2019-04-25T17:35:34.144Z,19.64
2019-04-25T17:38:19.403Z,19.62
2019-04-25T17:40:48.724Z,19.49
2019-04-25T17:43:18.347Z,19.47
2019-04-25T17:45:48.093Z,19.37
2019-04-25T17:48:17.766Z,19.32
2019-04-25T17:50:47.608Z,19.34
2019-04-25T17:53:17.381Z,19.36
2019-04-25T17:55:46.935Z,19.39
2019-04-25T17:58:16.668Z,19.43
2019-04-25T18:00:48.715Z,19.46
2019-04-25T18:03:20.167Z,19.48
2019-04-25T18:05:50.055Z,19.46
2019-04-25T18:08:23.719Z,19.39
2019-04-25T18:10:55.110Z,19.32
2019-04-25T18:13:24.621Z,19.14
2019-04-25T18:16:03.614Z,19.01
2019-04-25T18:18:41.435Z,18.99
2019-04-25T18:21:11.205Z,18.87
2019-04-25T18:23:54.492Z,18.73
2019-04-25T18:26:31.501Z,18.65
2019-04-25T18:29:02.747Z,18.67
2019-04-25T18:31:32.517Z,18.70
2019-04-25T18:34:03.959Z,18.74
2019-04-25T18:36:36.088Z,18.75
2019-04-25T18:39:08.201Z,18.74
2019-04-25T18:41:43.907Z,18.75
2019-04-25T18:44:14.866Z,18.68
2019-04-25T18:46:45.829Z,18.63
2019-04-25T18:49:15.384Z,18.63
2019-04-25T18:51:56.419Z,18.61
2019-04-25T18:54:27.100Z,18.61
2019-04-25T18:56:58.024Z,18.70
2019-04-25T18:59:44.618Z,18.78
2019-04-25T19:02:21.266Z,18.82
2019-04-25T19:04:52.163Z,18.82
2019-04-25T19:07:22.808Z,18.64
2019-04-25T19:09:52.260Z,18.55
2019-04-25T19:12:21.601Z,18.54
2019-04-25T19:14:51.728Z,18.57
2019-04-25T19:17:22.123Z,18.63
2019-04-25T19:19:51.984Z,18.70
2019-04-25T19:22:21.588Z,18.79
2019-04-25T19:24:50.856Z,18.83
2019-04-25T19:27:23.902Z,18.86
2019-04-25T19:29:53.524Z,18.84
2019-04-25T19:32:22.989Z,18.79
2019-04-25T19:34:52.249Z,18.73
2019-04-25T19:37:21.564Z,18.70
2019-04-25T19:40:08.481Z,18.71
2019-04-25T19:42:44.799Z,18.47
2019-04-25T19:45:15.350Z,18.43
2019-04-25T19:47:45.055Z,18.37
2019-04-25T19:50:14.494Z,18.37
2019-04-25T19:52:43.890Z,18.41
2019-04-25T19:55:13.355Z,18.47
2019-04-25T19:57:43.761Z,18.45
2019-04-25T20:00:13.110Z,18.48
2019-04-25T20:02:44.566Z,18.47
2019-04-25T20:05:15.473Z,18.50
2019-04-25T20:07:48.182Z,18.61
2019-04-25T20:10:19.626Z,18.61
2019-04-25T20:12:52.110Z,18.54
2019-04-25T20:15:21.572Z,18.54
2019-04-25T20:17:51.873Z,18.50
2019-04-25T20:20:21.710Z,18.48
2019-04-25T20:22:50.903Z,18.46
2019-04-25T20:25:20.137Z,18.52
2019-04-25T20:27:49.373Z,18.58
2019-04-25T20:30:18.854Z,18.59
2019-04-25T20:32:49.207Z,18.59
2019-04-25T20:35:18.522Z,18.57
2019-04-25T20:37:47.740Z,18.60
2019-04-25T20:40:16.935Z,18.61
2019-04-25T20:42:48.686Z,18.58
2019-04-25T20:45:18.174Z,18.54
2019-04-25T20:47:47.932Z,18.51
2019-04-25T20:50:17.500Z,18.43
2019-04-25T20:52:47.407Z,18.30
2019-04-25T20:55:17.335Z,18.23
2019-04-25T20:57:48.404Z,18.22
2019-04-25T21:00:44.395Z,18.16
2019-04-25T21:03:13.671Z,18.14
2019-04-25T21:05:43.775Z,18.04
2019-04-25T21:08:13.014Z,18.09
2019-04-25T21:10:42.390Z,18.12
2019-04-25T21:13:13.312Z,18.15
2019-04-25T21:15:50.741Z,18.14
2019-04-25T21:18:30.591Z,18.08
2019-04-25T21:21:01.296Z,18.03
2019-04-25T21:23:31.435Z,17.98
2019-04-25T21:26:01.238Z,17.97
2019-04-25T21:28:30.446Z,17.99
2019-04-25T21:31:02.005Z,18.00
2019-04-25T21:33:30.712Z,17.96
2019-04-25T21:36:00.152Z,17.93
2019-04-25T21:38:31.488Z,17.93
2019-04-25T21:41:02.685Z,17.97
2019-04-25T21:43:33.727Z,17.98
2019-04-25T21:46:04.423Z,18.00
2019-04-25T21:48:34.150Z,18.04
2019-04-25T21:51:05.297Z,18.04
2019-04-25T21:53:34.605Z,18.06
2019-04-25T21:56:04.127Z,18.08
2019-04-25T21:58:33.471Z,18.01
2019-04-25T22:01:04.697Z,18.04
2019-04-25T22:03:34.140Z,18.10
2019-04-25T22:06:05.122Z,18.13
2019-04-25T22:08:35.542Z,18.12
2019-04-25T22:11:05.538Z,18.07
2019-04-25T22:13:35.350Z,18.06
2019-04-25T22:16:05.870Z,18.07
2019-04-25T22:18:35.642Z,18.11
2019-04-25T22:21:05.191Z,18.14
2019-04-25T22:23:35.531Z,18.18
2019-04-25T22:26:05.139Z,18.16
2019-04-25T22:28:35.739Z,18.17
2019-04-25T22:31:07.599Z,18.18
2019-04-25T22:33:38.832Z,18.18
2019-04-25T22:36:15.484Z,18.13
2019-04-25T22:38:46.753Z,18.12
2019-04-25T22:41:16.124Z,18.07
2019-04-25T22:43:47.402Z,18.06
2019-04-25T22:46:25.799Z,18.07
2019-04-25T22:48:48.280Z,18.08
2019-04-25T22:51:17.696Z,18.04
2019-04-25T22:53:47.726Z,18.06
2019-04-25T22:56:17.091Z,18.11
2019-04-25T22:58:46.361Z,18.13
2019-04-25T23:01:23.253Z,18.15
2019-04-25T23:03:54.094Z,18.22
2019-04-25T23:06:23.631Z,18.19
2019-04-25T23:08:52.881Z,18.18
2019-04-25T23:11:22.113Z,18.15
2019-04-25T23:13:51.534Z,18.21
2019-04-25T23:16:21.036Z,18.22
2019-04-25T23:18:50.259Z,18.24
2019-04-25T23:21:19.530Z,18.25
2019-04-25T23:23:48.784Z,18.27
2019-04-25T23:26:26.103Z,18.24
2019-04-25T23:28:59.766Z,18.20
2019-04-25T23:31:33.559Z,18.23
2019-04-25T23:34:04.508Z,18.20
2019-04-25T23:36:34.434Z,18.14
2019-04-25T23:39:07.251Z,18.13
2019-04-25T23:41:36.726Z,18.14
2019-04-25T23:44:07.008Z,18.09
2019-04-25T23:46:37.085Z,18.03
2019-04-25T23:49:07.898Z,17.95
2019-04-25T23:51:37.535Z,17.92
2019-04-25T23:54:07.596Z,17.95
2019-04-25T23:56:37.084Z,17.98
2019-04-25T23:59:08.308Z,17.99
